Impacts METAR Board
IDs:

KSLC - Salt Lake City Intl, UT, US

Updated at: 2200 UTC 01 Feb 2023
Potential Impact None Slight Moderate High
Time 01/10Z 01/11Z 01/12Z 01/13Z 01/14Z 01/15Z 01/16Z 01/17Z 01/18Z 01/19Z 01/20Z 01/21Z 01/22Z
Temp21 19 17 17 18 19 20 23 28 28 29 31 31
Dewpt11 11 11 11 11 12 12 13 12 14 15 14 16
Altim30.36 30.36 30.37 30.36 30.35 30.37 30.38 30.39 30.39 30.40 30.37 30.35 30.34
VIS10 10 9 8 9 7 8 7 9 10 9 9 10
CIG-- -- -- -- -- -- -- -- -- -- -- -- --
CoverSCTFEWFEWFEWFEWFEWFEWFEWFEWFEWFEWFEWFEW
FltCatVFRVFRVFRVFRVFRVFRVFRVFRVFRVFRVFRVFRVFR
WX--------------------------
WDir036036000014000100360310
WSpd0 5 5 0 0 0 4 0 0 9 0 3 7
WGst-- -- -- -- -- -- -- -- -- -- -- -- --
Raw hourly METARs
KSLC 010954Z 00000KT 10SM SCT080 M06/M12 A3036 RMK AO2 SLP315 T10611117
KSLC 011054Z 36005KT 10SM FEW075 M07/M12 A3036 RMK AO2 SLP317 T10721117
KSLC 011154Z 36005KT 9SM FEW070 M08/M12 A3037 RMK AO2 SLP323 T10831117 11061 21083 53002
KSLC 011254Z 00000KT 8SM FEW065 M08/M12 A3036 RMK AO2 SLP321 T10831117
KSLC 011354Z 00000KT 9SM FEW065 M08/M12 A3035 RMK AO2 SLP320 T10781117
KSLC 011454Z 00000KT 7SM FEW060 FEW200 M07/M11 A3037 RMK AO2 SLP324 T10721111 55000
KSLC 011554Z 14004KT 8SM FEW060 M07/M11 A3038 RMK AO2 SLP326 T10671111
KSLC 011654Z 00000KT 7SM FEW065 FEW200 M05/M11 A3039 RMK AO2 SLP327 T10501106
KSLC 011754Z 00000KT 9SM FEW090 M02/M11 A3039 RMK AO2 SLP323 T10221111 11022 21083 51007
KSLC 011854Z 01009KT 10SM FEW085 M02/M10 A3040 RMK AO2 SLP324 ACSL DSNT SE T10221100
KSLC 011954Z 00000KT 9SM FEW085 M02/M09 A3037 RMK AO2 SLP314 T10171094
KSLC 012054Z 36003KT 9SM FEW085 M01/M10 A3035 RMK AO2 SLP303 T10061100 58014
KSLC 012154Z 31007KT 10SM FEW090 M01/M09 A3034 RMK AO2 SLP299 T10061089



Page loaded:  22:06 UTC  |   02:06 PM Pacific  |   03:06 PM Mountain  |   04:06 PM Central  |   05:06 PM Eastern

 

ADVISORIES

FORECASTS

FORECASTS

OBSERVATIONS

USER TOOLS

ABOUT US